Time;durP1;ratioP1;P1;durP2;ratioP2;P2;SDS_P1;SDS_P2;PMS_P1;PMS_P2;Temp;Humidity;BMP_temperature;BMP_pressure;BME280_temperature;BME280_humidity;BME280_pressure;Samples;Min_cycle;Max_cycle;Signal;HPM_P1;HPM_P2
2022/11/22 00:01:02;;;;;;;56.90;27.90;;;;;;;1.54;78.89;99583.77;105153;1287;22488;-69
2022/11/22 00:03:36;;;;;;;51.20;30.30;;;;;;;1.53;79.09;99584.63;105177;1307;22481;-70
2022/11/22 00:06:10;;;;;;;52.50;30.30;;;;;;;1.52;78.92;99584.80;105059;1308;22576;-71
2022/11/22 00:08:44;;;;;;;49.60;28.20;;;;;;;1.54;78.96;99585.81;105194;1306;22488;-69
2022/11/22 00:11:18;;;;;;;50.70;29.40;;;;;;;1.58;79.06;99583.70;105164;1288;22590;-71
2022/11/22 00:13:52;;;;;;;50.70;29.80;;;;;;;1.61;79.02;99584.86;105179;1307;22488;-71
2022/11/22 00:16:25;;;;;;;55.20;30.30;;;;;;;1.62;78.94;99583.13;105185;1307;22467;-72
2022/11/22 00:19:00;;;;;;;51.10;28.00;;;;;;;1.61;79.02;99583.30;105158;1288;22484;-69
2022/11/22 00:21:34;;;;;;;52.20;29.50;;;;;;;1.56;78.87;99587.16;105154;1307;22472;-70
2022/11/22 00:24:11;;;;;;;54.70;32.70;;;;;;;1.53;78.82;99589.45;105149;1287;22451;-71
2022/11/22 00:26:45;;;;;;;51.20;28.70;;;;;;;1.53;78.93;99589.61;105147;1307;22483;-71
2022/11/22 00:29:19;;;;;;;49.20;27.80;;;;;;;1.53;78.94;99592.02;105070;1290;22472;-71
2022/11/22 00:31:53;;;;;;;45.10;27.30;;;;;;;1.57;79.05;99585.60;105144;1287;22481;-71
2022/11/22 00:34:27;;;;;;;48.30;28.00;;;;;;;1.58;78.99;99586.11;105117;1304;22542;-70
2022/11/22 00:37:00;;;;;;;53.20;30.00;;;;;;;1.61;79.02;99583.66;105142;1294;22503;-70
2022/11/22 00:39:34;;;;;;;54.40;30.00;;;;;;;1.61;78.97;99588.46;105161;1307;22517;-71
2022/11/22 00:42:08;;;;;;;55.30;30.70;;;;;;;1.59;79.14;99587.98;105156;1307;22468;-71
2022/11/22 00:44:42;;;;;;;59.50;31.20;;;;;;;1.57;79.03;99586.64;105155;1299;25438;-70
2022/11/22 00:47:16;;;;;;;57.60;30.80;;;;;;;1.54;79.20;99585.13;105149;1296;22491;-71
2022/11/22 00:49:49;;;;;;;47.80;26.80;;;;;;;1.52;79.01;99584.30;105112;1307;22472;-71
2022/11/22 00:52:23;;;;;;;49.90;26.60;;;;;;;1.51;79.10;99584.64;105153;1287;22473;-71
2022/11/22 00:54:57;;;;;;;45.40;26.70;;;;;;;1.54;79.07;99584.61;105130;1287;22465;-71
2022/11/22 00:57:31;;;;;;;56.20;29.50;;;;;;;1.60;79.17;99581.45;105150;1307;22477;-69
2022/11/22 01:00:09;;;;;;;50.80;27.50;;;;;;;1.61;79.12;99584.87;105125;1285;22559;-69
2022/11/22 01:02:43;;;;;;;53.60;28.30;;;;;;;1.60;79.16;99587.79;105166;1291;22512;-71
2022/11/22 01:05:17;;;;;;;56.00;30.30;;;;;;;1.61;79.05;99589.16;105142;1307;22478;-69
2022/11/22 01:07:51;;;;;;;54.90;28.30;;;;;;;1.59;79.15;99592.28;105130;1288;22472;-71
2022/11/22 01:10:25;;;;;;;51.50;30.70;;;;;;;1.58;78.98;99591.61;105174;1291;22468;-69
2022/11/22 01:13:02;;;;;;;51.90;29.30;;;;;;;1.58;79.05;99592.29;105047;1307;22472;-71
2022/11/22 01:15:36;;;;;;;51.00;29.10;;;;;;;1.58;79.00;99591.61;105173;1307;22541;-71
2022/11/22 01:18:09;;;;;;;54.30;30.30;;;;;;;1.63;78.99;99595.15;105156;1297;22468;-71
2022/11/22 01:20:44;;;;;;;49.40;28.50;;;;;;;1.66;78.97;99595.63;105159;1290;22503;-71
2022/11/22 01:23:18;;;;;;;55.00;26.80;;;;;;;1.67;79.07;99594.55;105167;1297;25381;-71
2022/11/22 01:25:52;;;;;;;54.80;28.90;;;;;;;1.66;79.01;99597.69;105163;1283;22472;-72
2022/11/22 01:28:26;;;;;;;55.10;29.60;;;;;;;1.64;79.12;99597.54;105177;1287;22520;-69
2022/11/22 01:31:00;;;;;;;60.10;28.10;;;;;;;1.62;79.17;99592.06;105130;1307;22476;-67
2022/11/22 01:33:34;;;;;;;56.80;30.40;;;;;;;1.60;79.00;99586.27;105152;1307;22481;-69
2022/11/22 01:36:14;;;;;;;54.40;28.90;;;;;;;1.59;79.12;99581.63;105136;1287;22471;-70
2022/11/22 01:38:47;;;;;;;53.90;27.90;;;;;;;1.63;79.13;99579.85;105190;1294;22462;-70
2022/11/22 01:41:22;;;;;;;55.20;29.60;;;;;;;1.67;79.18;99581.50;105136;1307;25504;-70
2022/11/22 01:43:56;;;;;;;56.30;29.60;;;;;;;1.68;79.12;99585.97;105147;1288;22459;-71
2022/11/22 01:46:34;;;;;;;59.20;30.90;;;;;;;1.69;79.15;99586.12;105155;1286;22475;-71
2022/11/22 01:49:12;;;;;;;56.30;28.70;;;;;;;1.68;79.14;99588.04;105155;1291;22504;-69
2022/11/22 01:51:48;;;;;;;57.40;31.00;;;;;;;1.65;79.09;99593.04;105138;1273;22472;-69
2022/11/22 01:54:24;;;;;;;59.10;29.30;;;;;;;1.64;79.04;99593.92;105150;1297;22484;-69
2022/11/22 01:57:01;;;;;;;60.90;30.60;;;;;;;1.62;78.89;99596.52;105136;1287;22481;-71
2022/11/22 01:59:35;;;;;;;56.80;29.80;;;;;;;1.64;78.96;99596.70;105135;1307;22491;-71
2022/11/22 02:02:10;;;;;;;56.20;31.10;;;;;;;1.65;78.85;99605.09;105151;1297;22486;-69
2022/11/22 02:04:43;;;;;;;60.40;31.00;;;;;;;1.67;78.94;99608.48;105060;1297;22557;-71
2022/11/22 02:07:21;;;;;;;64.70;31.70;;;;;;;1.70;78.99;99615.33;105149;1290;23808;-69
2022/11/22 02:09:55;;;;;;;58.70;30.30;;;;;;;1.72;78.98;99619.59;105153;1285;22474;-68
2022/11/22 02:12:30;;;;;;;59.60;30.60;;;;;;;1.70;78.85;99624.27;105129;1307;22487;-71
2022/11/22 02:15:06;;;;;;;60.30;29.80;;;;;;;1.69;78.86;99621.37;105170;1307;24257;-71
2022/11/22 02:17:39;;;;;;;68.50;32.90;;;;;;;1.67;78.78;99620.53;105118;1307;22472;-69
2022/11/22 02:20:18;;;;;;;65.70;33.00;;;;;;;1.63;78.69;99621.63;105124;1307;22476;-68
2022/11/22 02:22:54;;;;;;;57.50;31.30;;;;;;;1.61;78.73;99624.55;105142;1291;22510;-70
2022/11/22 02:25:32;;;;;;;59.90;31.60;;;;;;;1.65;79.08;99629.49;105109;1285;22485;-70
2022/11/22 02:28:06;;;;;;;59.80;31.70;;;;;;;1.68;78.94;99628.61;105023;1308;22478;-69
2022/11/22 02:30:40;;;;;;;57.60;31.20;;;;;;;1.69;78.95;99624.81;105132;1293;22469;-71
2022/11/22 02:33:15;;;;;;;57.50;30.90;;;;;;;1.67;79.02;99629.48;105114;1288;22488;-70
2022/11/22 02:35:49;;;;;;;58.50;29.20;;;;;;;1.66;79.08;99628.62;105114;1290;22468;-71
2022/11/22 02:38:26;;;;;;;65.80;30.80;;;;;;;1.66;79.01;99633.27;105176;1288;22465;-70
2022/11/22 02:41:02;;;;;;;60.10;30.00;;;;;;;1.68;78.96;99636.52;105142;1307;22486;-69
2022/11/22 02:43:37;;;;;;;54.70;29.40;;;;;;;1.67;78.98;99643.05;105153;1292;22484;-71
2022/11/22 02:46:14;;;;;;;62.90;31.50;;;;;;;1.68;78.99;99642.17;105161;1307;24428;-70
2022/11/22 02:48:49;;;;;;;61.40;30.30;;;;;;;1.70;79.19;99641.64;105175;1291;22488;-70
2022/11/22 02:51:23;;;;;;;55.40;29.50;;;;;;;1.71;79.16;99639.72;105163;1307;22477;-69
2022/11/22 02:53:57;;;;;;;62.40;33.60;;;;;;;1.69;79.06;99638.05;105191;1307;22472;-72
2022/11/22 02:56:31;;;;;;;57.50;31.60;;;;;;;1.68;79.17;99635.48;105138;1286;22601;-71
2022/11/22 02:59:05;;;;;;;70.10;33.00;;;;;;;1.65;79.17;99634.14;105142;1303;22516;-70
2022/11/22 03:01:39;;;;;;;60.40;32.60;;;;;;;1.62;79.09;99634.35;105121;1289;22474;-71
2022/11/22 03:04:23;;;;;;;56.60;30.90;;;;;;;1.63;79.09;99632.29;105147;1294;25467;-69
2022/11/22 03:06:58;;;;;;;63.60;31.20;;;;;;;1.62;79.32;99632.96;105157;1301;22466;-71
2022/11/22 03:09:32;;;;;;;70.80;32.40;;;;;;;1.63;79.47;99632.11;105152;1293;24268;-68
2022/11/22 03:12:06;;;;;;;68.70;30.70;;;;;;;1.64;79.51;99632.63;105141;1307;24352;-71
2022/11/22 03:14:41;;;;;;;61.90;31.30;;;;;;;1.66;79.63;99630.52;105161;1306;22463;-71
2022/11/22 03:17:16;;;;;;;64.10;31.00;;;;;;;1.65;79.64;99629.17;105149;1300;22470;-68
2022/11/22 03:19:49;;;;;;;68.30;34.60;;;;;;;1.63;79.64;99629.70;105143;1307;22490;-70
2022/11/22 03:22:23;;;;;;;72.30;33.30;;;;;;;1.64;79.72;99624.38;105137;1307;22470;-69
2022/11/22 03:24:57;;;;;;;66.60;32.70;;;;;;;1.66;79.53;99623.11;105139;1289;22476;-68
2022/11/22 03:27:31;;;;;;;66.70;31.80;;;;;;;1.68;79.70;99621.03;105133;1307;22482;-71
2022/11/22 03:30:06;;;;;;;67.80;32.40;;;;;;;1.73;79.86;99621.13;105134;1291;22495;-71
2022/11/22 03:32:40;;;;;;;69.60;33.00;;;;;;;1.76;79.76;99621.27;105150;1288;22476;-69
2022/11/22 03:35:15;;;;;;;74.30;34.80;;;;;;;1.77;79.80;99620.39;105155;1275;24699;-70
2022/11/22 03:37:49;;;;;;;76.20;34.90;;;;;;;1.74;79.61;99622.86;105161;1307;24393;-71
2022/11/22 03:40:23;;;;;;;73.60;32.90;;;;;;;1.68;79.77;99623.79;105020;1290;25337;-71
2022/11/22 03:42:58;;;;;;;76.40;32.70;;;;;;;1.64;79.67;99627.64;105144;1290;22486;-71
2022/11/22 03:45:33;;;;;;;80.50;35.70;;;;;;;1.62;79.93;99623.52;105156;1287;22471;-70
2022/11/22 03:48:07;;;;;;;73.80;33.80;;;;;;;1.63;79.95;99622.83;105104;1307;22479;-68
2022/11/22 03:50:41;;;;;;;65.60;31.40;;;;;;;1.66;79.91;99625.36;105147;1307;22480;-71
2022/11/22 03:53:15;;;;;;;70.00;33.10;;;;;;;1.68;80.16;99622.42;105160;1297;22473;-71
2022/11/22 03:55:48;;;;;;;71.10;32.80;;;;;;;1.70;80.15;99624.27;105150;1307;22458;-71
2022/11/22 03:58:23;;;;;;;74.80;34.40;;;;;;;1.71;80.09;99622.02;105171;1287;22494;-70
2022/11/22 04:00:57;;;;;;;78.30;34.20;;;;;;;1.71;80.09;99623.06;105127;1307;22513;-69
2022/11/22 04:03:31;;;;;;;68.60;31.70;;;;;;;1.68;80.07;99623.10;105137;1307;24273;-71
2022/11/22 04:06:05;;;;;;;73.00;32.60;;;;;;;1.66;80.14;99626.73;105130;1286;25271;-71
2022/11/22 04:08:38;;;;;;;67.20;32.50;;;;;;;1.65;80.02;99629.52;105151;1281;22480;-71
2022/11/22 04:11:12;;;;;;;70.50;32.70;;;;;;;1.64;80.15;99628.31;105127;1301;24268;-70
2022/11/22 04:16:37;;;;;;;70.80;33.30;;;;;;;1.71;80.35;99624.25;105147;1287;22588;-71
2022/11/22 04:19:11;;;;;;;77.50;35.00;;;;;;;1.73;80.22;99621.66;105132;1307;22790;-69
2022/11/22 04:21:45;;;;;;;72.30;30.80;;;;;;;1.73;80.41;99619.77;105119;1307;22528;-72
2022/11/22 04:27:11;;;;;;;74.20;32.40;;;;;;;1.60;80.36;99613.23;105125;1301;22477;-71
2022/11/22 04:29:44;;;;;;;77.10;32.30;;;;;;;1.56;80.47;99609.17;105110;1307;22469;-72
2022/11/22 04:35:10;;;;;;;80.20;35.70;;;;;;;1.61;80.79;99601.54;105164;1289;22467;-70
2022/11/22 04:37:44;;;;;;;75.30;33.20;;;;;;;1.65;80.86;99603.89;105127;1287;25397;-71
2022/11/22 04:40:21;;;;;;;78.00;36.00;;;;;;;1.66;80.86;99600.42;105126;1295;22463;-70
2022/11/22 04:45:46;;;;;;;89.70;37.40;;;;;;;1.56;80.85;99598.69;105108;1300;22477;-70
2022/11/22 04:48:20;;;;;;;82.00;37.50;;;;;;;1.57;80.92;99598.83;105143;1287;22480;-70
2022/11/22 04:53:45;;;;;;;82.10;36.80;;;;;;;1.59;81.17;99601.40;105160;1297;22473;-71
2022/11/22 04:56:19;;;;;;;95.00;38.40;;;;;;;1.62;81.34;99602.73;105155;1288;25284;-70
2022/11/22 04:58:53;;;;;;;90.50;36.00;;;;;;;1.63;81.33;99604.77;105120;1289;25116;-71
2022/11/22 05:01:27;;;;;;;81.10;36.20;;;;;;;1.59;81.24;99604.98;105124;1288;24479;-70
2022/11/22 05:04:01;;;;;;;93.20;39.30;;;;;;;1.55;81.23;99609.17;105152;1292;22458;-71
2022/11/22 05:06:35;;;;;;;72.90;34.70;;;;;;;1.54;81.44;99612.80;105114;1305;24373;-70
2022/11/22 05:09:08;;;;;;;71.50;31.30;;;;;;;1.56;81.29;99615.00;105121;1307;22577;-68
2022/11/22 05:11:42;;;;;;;82.10;35.10;;;;;;;1.58;81.43;99625.14;105116;1287;22484;-72
2022/11/22 05:14:16;;;;;;;78.50;35.10;;;;;;;1.63;81.68;99621.63;105124;1287;22478;-70
2022/11/22 05:16:50;;;;;;;80.70;35.50;;;;;;;1.64;81.97;99620.58;105116;1307;22473;-70
2022/11/22 05:19:24;;;;;;;75.50;36.70;;;;;;;1.58;81.66;99623.23;105122;1307;25383;-71
2022/11/22 05:21:57;;;;;;;77.80;34.70;;;;;;;1.54;81.81;99625.87;105107;1307;22465;-71
2022/11/22 05:24:31;;;;;;;81.80;35.00;;;;;;;1.51;81.76;99630.20;105130;1307;22565;-71
2022/11/22 05:27:05;;;;;;;78.30;33.00;;;;;;;1.51;81.68;99631.56;105124;1294;22468;-70
2022/11/22 05:29:38;;;;;;;90.70;37.30;;;;;;;1.51;81.73;99637.75;105153;1280;22470;-70
2022/11/22 05:32:12;;;;;;;75.20;33.30;;;;;;;1.55;81.76;99635.65;105102;1290;22487;-71
2022/11/22 05:34:46;;;;;;;76.70;33.70;;;;;;;1.60;81.85;99636.61;105000;1309;24273;-70
2022/11/22 05:37:20;;;;;;;86.10;36.40;;;;;;;1.61;81.76;99638.67;104989;1301;22496;-70
2022/11/22 05:39:54;;;;;;;82.80;37.90;;;;;;;1.62;81.88;99642.77;105004;1309;22477;-70
2022/11/22 05:42:28;;;;;;;84.70;37.40;;;;;;;1.61;81.71;99648.65;105005;1290;22477;-70
2022/11/22 05:45:09;;;;;;;88.80;38.20;;;;;;;1.58;81.60;99655.21;104985;1290;22513;-71
2022/11/22 05:47:42;;;;;;;98.40;37.40;;;;;;;1.55;81.68;99656.62;104624;1309;480263;-69
2022/11/22 05:50:18;;;;;;;85.00;36.10;;;;;;;1.56;81.83;99658.66;105013;1309;23820;-72
2022/11/22 05:52:52;;;;;;;80.30;36.00;;;;;;;1.57;81.83;99668.45;105032;1290;22538;-70
2022/11/22 05:55:28;;;;;;;93.70;37.30;;;;;;;1.58;81.83;99672.74;105006;1299;25981;-69
2022/11/22 05:58:06;;;;;;;84.90;34.10;;;;;;;1.60;82.05;99677.38;105033;1308;22485;-72
2022/11/22 06:00:40;;;;;;;82.20;34.60;;;;;;;1.60;81.87;99677.02;105002;1301;22478;-71
2022/11/22 06:03:14;;;;;;;86.30;34.90;;;;;;;1.59;81.99;99677.20;104998;1289;22430;-69
2022/11/22 06:05:54;;;;;;;90.80;38.10;;;;;;;1.59;81.98;99681.16;104960;1309;22481;-69
2022/11/22 06:08:29;;;;;;;87.80;36.30;;;;;;;1.57;81.93;99683.06;105035;1301;22669;-69
2022/11/22 06:11:09;;;;;;;87.90;38.60;;;;;;;1.59;81.92;99687.02;104995;1298;22481;-69
2022/11/22 06:13:44;;;;;;;80.40;36.10;;;;;;;1.62;82.01;99686.95;104982;1309;22502;-71
2022/11/22 06:16:18;;;;;;;85.20;36.10;;;;;;;1.65;82.05;99686.05;104995;1309;22584;-72
2022/11/22 06:18:52;;;;;;;97.10;40.90;;;;;;;1.68;81.87;99689.14;105035;1304;22487;-71
2022/11/22 06:21:28;;;;;;;78.40;35.70;;;;;;;1.69;82.05;99690.66;105008;1291;25280;-72
2022/11/22 06:24:02;;;;;;;94.30;38.70;;;;;;;1.67;81.97;99691.54;105014;1308;22477;-71
2022/11/22 06:26:36;;;;;;;78.00;37.30;;;;;;;1.64;82.05;99689.35;105006;1309;22460;-71
2022/11/22 06:29:17;;;;;;;85.50;35.80;;;;;;;1.63;82.02;99695.38;104984;1309;22541;-69
2022/11/22 06:31:53;;;;;;;90.00;37.40;;;;;;;1.64;81.93;99694.50;104989;1309;22464;-68
2022/11/22 06:34:28;;;;;;;92.10;39.40;;;;;;;1.66;82.06;99693.77;105110;1307;22507;-69
2022/11/22 06:37:02;;;;;;;85.00;36.90;;;;;;;1.68;82.08;99694.12;105119;1300;22472;-71
2022/11/22 06:39:39;;;;;;;85.80;38.20;;;;;;;1.69;81.98;99693.94;105183;1295;25904;-72
2022/11/22 06:42:13;;;;;;;86.10;35.00;;;;;;;1.66;81.98;99694.63;105124;1307;22456;-71
2022/11/22 06:44:47;;;;;;;84.30;35.00;;;;;;;1.64;82.06;99692.27;105087;1307;22478;-71
2022/11/22 06:47:21;;;;;;;86.40;35.80;;;;;;;1.64;82.18;99693.81;105150;1288;22604;-72
2022/11/22 06:49:56;;;;;;;90.60;36.10;;;;;;;1.67;82.08;99693.77;105156;1309;22786;-69
2022/11/22 06:52:31;;;;;;;84.70;36.90;;;;;;;1.69;82.22;99694.61;105211;1309;22513;-69
2022/11/22 06:55:06;;;;;;;84.50;35.60;;;;;;;1.75;82.24;99700.38;105183;1289;22466;-68
2022/11/22 06:57:40;;;;;;;80.90;34.70;;;;;;;1.79;82.33;99701.88;105176;1291;22500;-70
2022/11/22 07:00:18;;;;;;;95.80;37.10;;;;;;;1.83;82.32;99700.80;105182;1308;22944;-70
2022/11/22 07:02:52;;;;;;;89.40;35.40;;;;;;;1.85;82.29;99699.04;105211;1307;24267;-72
2022/11/22 07:05:26;;;;;;;85.70;35.10;;;;;;;1.87;82.32;99704.17;105209;1290;22493;-72
2022/11/22 07:08:03;;;;;;;91.50;34.50;;;;;;;1.82;82.09;99708.02;105119;1287;22484;-69
2022/11/22 07:10:39;;;;;;;89.10;36.60;;;;;;;1.79;82.13;99716.66;105128;1274;22465;-71
2022/11/22 07:13:14;;;;;;;90.80;37.20;;;;;;;1.78;82.28;99723.03;105126;1302;25349;-72
2022/11/22 07:15:59;;;;;;;83.10;37.70;;;;;;;1.79;82.33;99724.23;105174;1288;22490;-71
2022/11/22 07:18:34;;;;;;;89.60;37.10;;;;;;;1.86;82.76;99724.14;105161;1281;22526;-71
2022/11/22 07:21:08;;;;;;;86.30;38.10;;;;;;;1.94;82.74;99717.66;105112;1309;24263;-71
2022/11/22 07:23:44;;;;;;;96.50;37.70;;;;;;;1.94;82.51;99713.72;105137;1307;22478;-72
2022/11/22 07:26:18;;;;;;;88.50;38.20;;;;;;;1.94;82.39;99713.20;105122;1288;22469;-72
2022/11/22 07:28:52;;;;;;;87.00;36.30;;;;;;;1.92;82.44;99717.02;105054;1308;22510;-71
2022/11/22 07:31:27;;;;;;;82.50;36.70;;;;;;;1.91;82.42;99714.43;105123;1308;22531;-72
2022/11/22 07:34:01;;;;;;;96.00;37.70;;;;;;;1.90;82.34;99712.90;105164;1309;24335;-69
2022/11/22 07:36:35;;;;;;;86.10;37.00;;;;;;;1.95;82.49;99711.63;105081;1309;22480;-69
2022/11/22 07:39:09;;;;;;;82.10;36.90;;;;;;;2.00;82.65;99715.70;105069;1295;22488;-69
2022/11/22 07:41:42;;;;;;;78.90;34.90;;;;;;;1.97;82.31;99713.84;105006;1309;22470;-72
2022/11/22 07:44:17;;;;;;;99.10;38.80;;;;;;;1.99;82.42;99711.06;105071;1302;22476;-69
2022/11/22 07:46:51;;;;;;;95.30;38.40;;;;;;;2.02;82.53;99712.22;105053;1308;22836;-70
2022/11/22 07:49:26;;;;;;;91.90;37.00;;;;;;;2.04;82.44;99715.48;105048;1290;24283;-69
2022/11/22 07:52:08;;;;;;;94.40;38.50;;;;;;;2.04;82.46;99719.26;104964;1309;24267;-70
2022/11/22 07:54:44;;;;;;;91.50;36.60;;;;;;;2.09;82.41;99720.23;105108;1286;22482;-69
2022/11/22 07:57:31;;;;;;;98.90;38.70;;;;;;;2.14;82.32;99724.45;105055;1302;22601;-70
2022/11/22 08:00:20;;;;;;;91.10;36.90;;;;;;;2.19;82.34;99724.55;104997;1300;22911;-69
2022/11/22 08:02:54;;;;;;;103.10;40.30;;;;;;;2.23;82.32;99731.54;105062;1303;22482;-72
2022/11/22 08:05:29;;;;;;;109.90;41.60;;;;;;;2.23;82.15;99736.38;105025;1304;22464;-70
2022/11/22 08:08:04;;;;;;;101.40;42.00;;;;;;;2.22;82.24;99739.14;105051;1309;22465;-71
2022/11/22 08:10:38;;;;;;;99.00;41.60;;;;;;;2.22;82.13;99740.68;105045;1308;22480;-72
2022/11/22 08:13:12;;;;;;;111.00;43.10;;;;;;;2.21;82.11;99741.89;105063;1284;22539;-72
2022/11/22 08:15:48;;;;;;;98.50;40.40;;;;;;;2.17;81.80;99742.80;105064;1307;22484;-72
2022/11/22 08:18:22;;;;;;;115.60;40.10;;;;;;;2.18;82.01;99740.39;105054;1309;24267;-72
2022/11/22 08:21:05;;;;;;;114.20;44.00;;;;;;;2.27;82.33;99743.38;105070;1307;22534;-71
2022/11/22 08:23:40;;;;;;;102.20;42.40;;;;;;;2.31;82.00;99746.91;105089;1298;22605;-71
2022/11/22 08:26:16;;;;;;;107.30;40.50;;;;;;;2.30;81.88;99743.31;105052;1309;22473;-71
2022/11/22 08:28:50;;;;;;;111.60;45.70;;;;;;;2.27;81.79;99740.27;105045;1289;22469;-70
2022/11/22 08:31:24;;;;;;;110.50;41.90;;;;;;;2.24;81.70;99740.13;105024;1309;24464;-72
2022/11/22 08:33:58;;;;;;;111.30;40.10;;;;;;;2.22;81.79;99740.85;105038;1292;22533;-71
2022/11/22 08:36:32;;;;;;;111.90;43.70;;;;;;;2.20;81.75;99736.93;105076;1287;22522;-70
2022/11/22 08:39:06;;;;;;;96.50;42.00;;;;;;;2.18;81.75;99745.38;105116;1290;22463;-71
2022/11/22 08:41:41;;;;;;;100.30;39.20;;;;;;;2.19;81.76;99746.41;105072;1309;22496;-69
2022/11/22 08:44:15;;;;;;;106.30;41.80;;;;;;;2.26;82.01;99746.64;105125;1308;22745;-71
2022/11/22 08:46:50;;;;;;;99.30;41.10;;;;;;;2.34;81.98;99746.88;105053;1291;22541;-71
2022/11/22 08:49:24;;;;;;;106.00;39.60;;;;;;;2.39;81.98;99747.84;105078;1283;22472;-72
2022/11/22 08:51:58;;;;;;;104.90;41.30;;;;;;;2.41;81.77;99745.22;105055;1309;22474;-73
2022/11/22 08:54:32;;;;;;;108.90;46.20;;;;;;;2.39;81.72;99746.98;105076;1297;22527;-72
2022/11/22 08:57:06;;;;;;;117.10;42.40;;;;;;;2.38;81.73;99745.80;105059;1289;24567;-72
2022/11/22 08:59:40;;;;;;;107.20;43.40;;;;;;;2.42;81.66;99747.45;105098;1297;22489;-70
2022/11/22 09:02:14;;;;;;;98.20;41.30;;;;;;;2.44;81.58;99746.02;105048;1290;24271;-70
2022/11/22 09:04:48;;;;;;;101.30;41.80;;;;;;;2.46;81.52;99749.45;105078;1287;22468;-72
2022/11/22 09:07:23;;;;;;;106.00;42.50;;;;;;;2.47;81.59;99747.90;105068;1309;22582;-72
2022/11/22 09:09:57;;;;;;;99.40;38.40;;;;;;;2.48;81.43;99750.45;105083;1287;25289;-72
2022/11/22 09:12:31;;;;;;;110.00;44.00;;;;;;;2.45;81.43;99751.17;105061;1291;25362;-70
2022/11/22 09:15:05;;;;;;;108.50;41.60;;;;;;;2.43;81.47;99755.52;105104;1309;22525;-69
2022/11/22 09:17:39;;;;;;;102.10;42.00;;;;;;;2.46;81.47;99753.92;105089;1282;22480;-69
2022/11/22 09:20:14;;;;;;;105.50;38.60;;;;;;;2.50;81.57;99756.11;105087;1309;22462;-71
2022/11/22 09:22:48;;;;;;;100.50;39.90;;;;;;;2.53;81.40;99757.44;105088;1309;22473;-71
2022/11/22 09:25:22;;;;;;;103.40;40.10;;;;;;;2.54;81.52;99757.23;105056;1291;22457;-69
2022/11/22 09:27:56;;;;;;;101.30;41.40;;;;;;;2.57;81.59;99761.17;105044;1291;25938;-71
2022/11/22 09:30:30;;;;;;;110.70;46.00;;;;;;;2.57;81.43;99762.20;105071;1303;22474;-71
2022/11/22 09:33:05;;;;;;;136.10;52.00;;;;;;;2.56;81.39;99764.11;105071;1293;22465;-72
2022/11/22 09:35:40;;;;;;;131.50;47.10;;;;;;;2.60;81.50;99758.70;105054;1309;22467;-72
2022/11/22 09:38:14;;;;;;;121.40;46.00;;;;;;;2.63;81.38;99755.58;105077;1290;22465;-69
2022/11/22 09:40:50;;;;;;;116.60;49.50;;;;;;;2.64;81.52;99753.66;105036;1309;24260;-71
2022/11/22 09:43:30;;;;;;;118.10;45.10;;;;;;;2.71;81.51;99750.96;105035;1308;24202;-70
2022/11/22 09:46:21;;;;;;;130.90;44.90;;;;;;;2.70;81.39;99751.14;105057;1297;22732;-72
2022/11/22 09:49:20;;;;;;;130.80;43.30;;;;;;;2.69;81.32;99753.74;105027;1309;22474;-72
2022/11/22 09:51:57;;;;;;;140.70;48.00;;;;;;;2.68;81.37;99752.05;105055;1294;21699;-69
2022/11/22 09:54:34;;;;;;;120.70;42.80;;;;;;;2.70;81.57;99755.80;105037;1309;22485;-70
2022/11/22 09:57:13;;;;;;;141.00;50.00;;;;;;;2.74;81.32;99748.85;105091;1294;23099;-70
2022/11/22 09:59:50;;;;;;;121.30;46.10;;;;;;;2.78;81.31;99740.84;105086;1288;22474;-70
2022/11/22 10:02:28;;;;;;;112.10;47.60;;;;;;;2.80;81.27;99744.61;105059;1294;22461;-72
2022/11/22 10:05:03;;;;;;;116.00;44.20;;;;;;;2.86;81.22;99753.31;105087;1309;23657;-70
2022/11/22 10:07:42;;;;;;;115.00;44.60;;;;;;;2.89;81.25;99757.72;105075;1294;22465;-69
2022/11/22 10:10:20;;;;;;;130.70;48.90;;;;;;;2.89;81.03;99754.80;105084;1290;22473;-68
2022/11/22 10:12:57;;;;;;;119.10;41.70;;;;;;;2.89;81.12;99753.59;105051;1307;22481;-71
2022/11/22 10:15:36;;;;;;;101.00;41.00;;;;;;;2.94;81.18;99749.54;105095;1286;22461;-71
2022/11/22 10:18:21;;;;;;;91.80;38.00;;;;;;;2.97;80.83;99747.95;105050;1290;22552;-71
2022/11/22 10:20:55;;;;;;;102.60;41.00;;;;;;;3.04;80.80;99752.14;105055;1291;22601;-72
2022/11/22 10:23:31;;;;;;;107.10;42.70;;;;;;;3.13;80.83;99751.45;105053;1310;22461;-70
2022/11/22 10:26:16;;;;;;;100.40;41.60;;;;;;;3.24;80.75;99755.58;105035;1300;25391;-69
2022/11/22 10:28:56;;;;;;;101.90;40.40;;;;;;;3.28;80.38;99744.98;105090;1306;24262;-71
2022/11/22 10:31:30;;;;;;;;;;;;;;;3.24;79.98;99742.14;105051;1310;22464;-70
2022/11/22 10:34:09;;;;;;;102.70;39.40;;;;;;;3.20;79.82;99739.45;105069;1297;22473;-70
2022/11/22 10:36:49;;;;;;;105.90;43.30;;;;;;;3.18;80.05;99746.20;105064;1292;21763;-69
2022/11/22 10:39:35;;;;;;;120.30;47.20;;;;;;;3.16;80.03;99749.50;105087;1306;22475;-68
2022/11/22 10:42:31;;;;;;;78.80;35.40;;;;;;;3.19;80.00;99755.83;105074;1309;22600;-70
2022/11/22 10:45:10;;;;;;;84.30;34.80;;;;;;;3.20;79.67;99759.27;105059;1291;22515;-71
2022/11/22 10:47:55;;;;;;;85.10;35.50;;;;;;;3.17;79.28;99766.91;105035;1308;24357;-72
2022/11/22 10:50:32;;;;;;;91.60;37.10;;;;;;;3.14;79.48;99780.90;105072;1309;22496;-70
2022/11/22 10:53:11;;;;;;;87.50;36.00;;;;;;;3.10;79.36;99781.66;105074;1296;22619;-72
2022/11/22 10:55:53;;;;;;;85.50;38.00;;;;;;;3.09;79.37;99782.20;104992;1304;25394;-72
2022/11/22 10:58:35;;;;;;;82.00;34.80;;;;;;;3.12;79.71;99790.09;105118;1309;22479;-71
2022/11/22 11:01:14;;;;;;;87.70;37.00;;;;;;;3.15;79.48;99791.08;105064;1309;22619;-68
2022/11/22 11:03:50;;;;;;;79.00;34.20;;;;;;;3.18;79.37;99790.16;105111;1303;22469;-70
2022/11/22 11:06:26;;;;;;;73.50;35.60;;;;;;;3.24;79.20;99786.08;105058;1306;22483;-71
2022/11/22 11:09:04;;;;;;;65.70;30.10;;;;;;;3.29;79.04;99769.61;105080;1309;22714;-71
2022/11/22 11:11:38;;;;;;;73.80;32.50;;;;;;;3.35;78.94;99767.27;105047;1294;22498;-70
2022/11/22 11:14:23;;;;;;;76.80;37.50;;;;;;;3.37;78.81;99762.92;105057;1308;22498;-73
2022/11/22 11:16:57;;;;;;;73.90;33.50;;;;;;;3.43;78.94;99758.32;105057;1309;22477;-72
2022/11/22 11:19:32;;;;;;;72.00;34.20;;;;;;;3.46;78.40;99753.11;105060;1306;24256;-72
2022/11/22 11:22:21;;;;;;;62.20;28.10;;;;;;;3.51;78.62;99761.98;105054;1290;24857;-72
2022/11/22 11:24:55;;;;;;;54.30;26.80;;;;;;;3.52;78.01;99767.46;105023;1288;22476;-71
2022/11/22 11:27:31;;;;;;;53.80;23.90;;;;;;;3.52;77.47;99765.40;105035;1308;22470;-70
2022/11/22 11:30:11;;;;;;;53.10;22.80;;;;;;;3.51;77.16;99756.46;105040;1308;22483;-72
2022/11/22 11:32:55;;;;;;;36.90;20.20;;;;;;;3.54;76.75;99755.18;105027;1309;22470;-71
2022/11/22 11:35:30;;;;;;;44.50;22.80;;;;;;;3.59;76.33;99758.17;105048;1293;25392;-71
2022/11/22 11:38:08;;;;;;;58.00;26.30;;;;;;;3.61;76.15;99754.20;105058;1300;22459;-71
2022/11/22 11:40:42;;;;;;;49.00;22.50;;;;;;;3.65;76.03;99757.05;105039;1309;22484;-72
2022/11/22 11:43:21;;;;;;;48.60;24.30;;;;;;;3.70;76.20;99757.80;105058;1309;23969;-71
2022/11/22 11:45:55;;;;;;;43.40;20.70;;;;;;;3.73;75.70;99756.19;105053;1301;22479;-72
2022/11/22 11:48:39;;;;;;;42.40;20.80;;;;;;;3.69;75.32;99751.80;105059;1291;22450;-70
2022/11/22 11:51:23;;;;;;;35.80;19.60;;;;;;;3.66;74.72;99746.15;105092;1309;22503;-71
2022/11/22 11:54:01;;;;;;;44.90;21.20;;;;;;;3.58;74.58;99743.57;105095;1293;22489;-71
2022/11/22 11:56:45;;;;;;;50.20;24.40;;;;;;;3.54;74.76;99740.86;105052;1299;22476;-71
2022/11/22 11:59:21;;;;;;;57.20;26.50;;;;;;;3.50;74.85;99730.27;105038;1290;22594;-71
2022/11/22 12:02:04;;;;;;;52.20;25.60;;;;;;;3.48;74.40;99736.34;105055;1310;22475;-71
2022/11/22 12:04:46;;;;;;;54.50;25.50;;;;;;;3.46;74.67;99738.10;105056;1303;22491;-73
2022/11/22 12:07:25;;;;;;;59.00;25.70;;;;;;;3.47;74.69;99736.54;105074;1308;22464;-71
2022/11/22 12:09:59;;;;;;;53.30;25.10;;;;;;;3.48;74.93;99732.19;105027;1309;24254;-70